• Join FlightAware (Why Join?)
  • Login
  • US Flag 
01:42AM EDT


 

Airport Tracker/Info


-or-


 

Live Flight TrackerFlight Track Log ✈ EJA368 ✈ 06-Jul-2013 ✈ KJAC - KDAL

Flight Track Log - Related Links

Times and Time Zones

All times are in EDT time to prevent confusion due to time zone crossing. See the EJA368 flight status page for this flight to view local times or setup timezone preferences in your user account.

Time Position Orientation Groundspeed Altitude Reporting Facility
EDT Latitude Longitude Course Direction KTS MPH feet Rate Location/Type
01:04PM 43.5864 -110.7506 134° Southeast 160 184 7,800  Level Salt Lake Center
01:05PM 43.5369 -110.7831 205° Southwest 194 223 11,300 2,460 Climbing Salt Lake Center
01:06PM 43.4711 -110.8258 205° Southwest 251 289 13,000 840 Climbing Salt Lake Center
01:07PM 43.0354 -110.7249 136° Southeast  Level FlightAware Approximate
01:07PM 43.3850 -110.8808 205° Southwest 325 374 13,100  Level Salt Lake Center
01:08PM 42.9537 -110.6148 134° Southeast  Level FlightAware Approximate
01:08PM 43.3003 -110.9358 205° Southwest 336 387 14,100  Level Salt Lake Center
01:09PM 42.8744 -110.5014 134° Southeast  Level FlightAware Approximate
01:09PM 43.2022 -110.9536 188° South 374 430 16,500  Level Salt Lake Center
01:10PM 43.1206 -110.8483 137° Southeast 414 476 18,800 2,640 Climbing Salt Lake Center
01:11PM 43.0314 -110.7133 132° Southeast 411 473 22,000 2,580 Climbing Salt Lake Center
01:12PM 42.9581 -110.6017 132° Southeast 413 475 24,200 2,220 Climbing Salt Lake Center
01:13PM 42.8683 -110.4689 133° Southeast 424 488 26,600 2,100 Climbing Salt Lake Center
01:15PM 42.7906 -110.3522 132° Southeast 433 498 28,600 1,980 Climbing Salt Lake Center
01:16PM 42.6975 -110.2117 132° Southeast 440 506 30,700 1,680 Climbing Salt Lake Center
01:17PM 42.6186 -110.0936 132° Southeast 441 507 32,100 1,140 Climbing Salt Lake Center
01:18PM 42.5381 -109.9744 133° Southeast 447 514 33,100 960 Climbing Salt Lake Center
01:19PM 42.4400 -109.8300 133° Southeast 463 533 34,100 780 Climbing Salt Lake Center
01:20PM 42.3550 -109.7058 133° Southeast 468 539 34,800 720 Climbing Salt Lake Center
01:21PM 42.2550 -109.5589 133° Southeast 473 544 35,700 840 Climbing Salt Lake Center
01:22PM 42.1686 -109.4325 133° Southeast 477 549 36,600 960 Climbing Salt Lake Center
01:23PM 42.0689 -109.2869 133° Southeast 474 545 37,700 900 Climbing Salt Lake Center
01:24PM 41.9847 -109.1647 133° Southeast 469 540 38,500 720 Climbing Salt Lake Center
01:25PM 41.8858 -109.0219 133° Southeast 466 536 39,200 660 Climbing Salt Lake Center
01:26PM 41.7997 -108.8997 133° Southeast 467 537 39,900 660 Climbing Salt Lake Center
01:27PM 41.7158 -108.7803 133° Southeast 458 527 40,600 480 Climbing Salt Lake Center
01:28PM 41.6183 -108.6400 133° Southeast 457 526 41,000 180 Climbing Salt Lake Center
01:29PM 41.5472 -108.5389 133° Southeast 458 527 41,000  Level Denver Center
01:30PM 41.4764 -108.4400 134° Southeast 460 529 41,000  Level Denver Center
01:31PM 41.3631 -108.2819 134° Southeast 460 529 41,000  Level Denver Center
01:32PM 41.2786 -108.1628 133° Southeast 461 531 41,000  Level Denver Center
01:33PM 41.1778 -108.0244 134° Southeast 465 535 41,000  Level Denver Center
01:34PM 41.0925 -107.9075 134° Southeast 463 533 41,000  Level Denver Center
01:35PM 40.9803 -107.7900 142° Southeast 461 531 41,000  Level Denver Center
01:36PM 40.8814 -107.6953 144° Southeast 458 527 41,000  Level Denver Center
01:37PM 40.7669 -107.5844 144° Southeast 456 525 41,000  Level Denver Center
01:38PM 40.6650 -107.4814 143° Southeast 453 521 41,000  Level Denver Center
01:39PM 40.5669 -107.3853 143° Southeast 457 526 41,000  Level Denver Center
01:40PM 40.4556 -107.2731 143° Southeast 453 521 41,000  Level Denver Center
01:41PM 40.3622 -107.1725 141° Southeast 454 522 41,000  Level Denver Center
01:42PM 40.2781 -107.0556 133° Southeast 460 529 41,000  Level Denver Center
01:43PM 40.1789 -106.9181 133° Southeast 462 532 41,000  Level Denver Center
01:44PM 40.0939 -106.8014 134° Southeast 462 532 41,000  Level Denver Center
01:45PM 39.9947 -106.6636 133° Southeast 463 533 41,000  Level Denver Center
01:46PM 39.9017 -106.5342 133° Southeast 465 535 41,000  Level Denver Center
01:47PM 39.8114 -106.4125 134° Southeast 469 540 41,000  Level Denver Center
01:48PM 39.7225 -106.2911 134° Southeast 466 536 41,000  Level Denver Center
01:49PM 39.6281 -106.1628 134° Southeast 472 543 41,000  Level Denver Center
01:50PM 39.5408 -106.0472 134° Southeast 470 541 41,000  Level Denver Center
01:52PM 39.4322 -105.9014 134° Southeast 469 540 41,000  Level Denver Center
01:53PM 39.3422 -105.7797 134° Southeast 472 543 41,000  Level Denver Center
01:54PM 39.2531 -105.6597 134° Southeast 467 537 41,000  Level Denver Center
01:55PM 39.1617 -105.5386 134° Southeast 471 542 41,000  Level Denver Center
01:56PM 39.0703 -105.4167 134° Southeast 476 548 41,000  Level Denver Center
01:57PM 38.9611 -105.2742 135° Southeast 470 541 41,000  Level Denver Center
01:58PM 38.8692 -105.1533 134° Southeast 474 545 41,000  Level Denver Center
01:59PM 38.7775 -105.0328 134° Southeast 475 547 41,000  Level Denver Center
02:00PM 38.6683 -104.8894 134° Southeast 474 545 41,000  Level Denver Center
02:01PM 38.5753 -104.7683 134° Southeast 480 552 41,000  Level Denver Center
02:02PM 38.4642 -104.6253 135° Southeast 477 549 41,000  Level Denver Center
02:03PM 38.3714 -104.5039 134° Southeast 478 550 41,000  Level Denver Center
02:04PM 38.2725 -104.3814 136° Southeast 471 542 41,000  Level Denver Center
02:05PM 38.1831 -104.2669 135° Southeast 474 545 41,000  Level Denver Center
02:06PM 38.0792 -104.1353 135° Southeast 470 541 41,000  Level Denver Center
02:07PM 38.0039 -104.0411 135° Southeast 473 544 41,000  Level Denver Center
02:08PM 37.9000 -103.9086 135° Southeast 471 542 41,000  Level Denver Center
02:09PM 37.7947 -103.7764 135° Southeast 472 543 41,000  Level Denver Center
02:10PM 37.7044 -103.6631 135° Southeast 473 544 41,000  Level Denver Center
02:11PM 37.5989 -103.5322 135° Southeast 473 544 41,000  Level Denver Center
02:12PM 37.5092 -103.4206 135° Southeast 471 542 41,000  Level Denver Center
02:13PM 37.4050 -103.2925 136° Southeast 466 536 41,000  Level Denver Center
02:14PM 37.3147 -103.1828 136° Southeast 469 540 41,000  Level Denver Center
02:16PM 37.2264 -103.0733 135° Southeast 467 537 41,000  Level Denver Center
02:17PM 37.1119 -102.9242 134° Southeast 465 535 41,000  Level Denver Center
02:18PM 37.0253 -102.7808 127° Southeast 466 536 41,000  Level Albuquerque Center
02:19PM 36.9489 -102.6583 128° Southeast 465 535 41,000  Level Albuquerque Center
02:20PM 36.8639 -102.5222 128° Southeast 466 536 41,000  Level Albuquerque Center
02:21PM 36.7867 -102.3986 128° Southeast 470 541 41,000  Level Albuquerque Center
02:22PM 36.7061 -102.2731 129° Southeast 467 537 41,000  Level Albuquerque Center
02:23PM 36.6208 -102.1381 128° Southeast 464 534 41,000  Level Albuquerque Center
02:24PM 36.5303 -101.9936 128° Southeast 468 539 41,000  Level Albuquerque Center
02:25PM 36.4511 -101.8703 129° Southeast 461 531 41,000  Level Albuquerque Center
02:26PM 36.3706 -101.7461 129° Southeast 461 531 41,000  Level Albuquerque Center
02:27PM 36.2900 -101.6203 128° Southeast 462 532 41,000  Level Albuquerque Center
02:28PM 36.2100 -101.4953 128° Southeast 462 532 41,000  Level Albuquerque Center
02:29PM 36.1294 -101.3706 129° Southeast 463 533 41,000  Level Albuquerque Center
02:30PM 36.0442 -101.2369 128° Southeast 466 536 41,000  Level Albuquerque Center
02:31PM 35.9667 -101.1194 129° Southeast 465 535 41,000  Level Albuquerque Center
02:32PM 35.8850 -100.9944 129° Southeast 466 536 41,000  Level Albuquerque Center
02:33PM 35.8006 -100.8647 129° Southeast 464 534 41,000  Level Albuquerque Center
02:34PM 35.7067 -100.7217 129° Southeast 465 535 41,000  Level Albuquerque Center
02:35PM 35.6183 -100.5914 130° Southeast 469 540 41,000  Level Albuquerque Center
02:36PM 35.5386 -100.4692 129° Southeast 466 536 41,000  Level Albuquerque Center
02:37PM 35.4569 -100.3467 129° Southeast 464 534 41,000  Level Albuquerque Center
02:38PM 35.3761 -100.2247 129° Southeast 463 533 41,000  Level Albuquerque Center
02:39PM 35.2939 -100.1033 130° Southeast 464 534 41,000  Level Albuquerque Center
02:40PM 35.2117 -99.9828 130° Southeast 462 532 41,000  Level Albuquerque Center
02:41PM 35.1303 -99.8617 129° Southeast 462 532 41,000  Level Albuquerque Center
02:42PM 35.0608 -99.7647 131° Southeast 461 531 41,000  Level Fort Worth Center
02:43PM 34.9794 -99.6436 129° Southeast 461 531 41,000 -600 Level Fort Worth Center
02:44PM 34.8983 -99.5225 129° Southeast 461 531 39,800 -1,740 Descending Fort Worth Center
02:45PM 34.8167 -99.4014 129° Southeast 466 536 37,600 -2,100 Descending Fort Worth Center
02:46PM 34.7331 -99.2858 131° Southeast 461 531 35,700 -1,800 Descending Fort Worth Center
02:47PM 34.6494 -99.1603 129° Southeast 467 537 34,100 -1,620 Descending Fort Worth Center
02:48PM 34.5675 -99.0475 131° Southeast 467 537 32,500 -1,560 Descending Fort Worth Center
02:49PM 34.4814 -98.9225 130° Southeast 469 540 31,000 -1,500 Descending Fort Worth Center
02:50PM 34.3972 -98.8003 130° Southeast 469 540 29,600 -1,560 Descending Fort Worth Center
02:51PM 34.3108 -98.6808 131° Southeast 464 534 27,900 -1,800 Descending Fort Worth Center
02:52PM 34.2264 -98.5564 129° Southeast 464 534 26,000 -1,800 Descending Fort Worth Center
02:53PM 34.1439 -98.4425 131° Southeast 464 534 24,400 -1,020 Descending Fort Worth Center
02:54PM 34.0678 -98.3286 129° Southeast 459 528 24,000 -240 Descending Fort Worth Center
02:55PM 33.9872 -98.2125 130° Southeast 454 522 24,000  Level Fort Worth Center
02:56PM 33.9064 -98.1042 132° Southeast 449 517 24,000 -900 Level Fort Worth Center
02:57PM 33.8358 -98.0036 130° Southeast 439 505 22,300 -2,160 Descending Fort Worth Center
02:58PM 33.7508 -97.8856 131° Southeast 432 497 19,700 -2,400 Descending Fort Worth Center
02:59PM 33.6761 -97.7803 130° Southeast 421 484 17,600 -2,100 Descending Fort Worth Center
03:00PM 33.6033 -97.6778 130° Southeast 411 473 15,500 -2,040 Descending Fort Worth Center
03:01PM 33.5367 -97.5903 132° Southeast 401 461 13,600 -1,980 Descending Fort Worth Center
03:02PM 33.4658 -97.4906 130° Southeast 375 432 11,600 -1,860 Descending Fort Worth Center
03:03PM 33.4094 -97.4258 136° Southeast 331 381 9,900 -1,980 Descending Fort Worth Center
03:04PM 33.3678 -97.3464 122° Southeast 260 299 7,700 -2,280 Descending Fort Worth Center
03:05PM 33.3761 -97.2667 83° East 245 282 5,400 -1,860 Descending Fort Worth Center
03:06PM 33.3717 -97.1672 93° East 257 296 4,000 -720 Descending Fort Worth Center
03:07PM 33.3589 -97.0828 100° East 257 296 4,000  Level Fort Worth Center
03:08PM 33.3461 -96.9983 100° East 257 296 4,000  Level Fort Worth Center
03:09PM 33.3106 -96.9261 120° Southeast 247 284 4,000  Level Fort Worth Center
03:10PM 33.2581 -96.8694 138° Southeast 253 291 4,000 -300 Level Fort Worth Center
03:11PM 33.1911 -96.8575 172° South 246 283 3,400 -540 Descending Fort Worth Center
03:12PM 33.1222 -96.8528 177° South 246 283 3,000 -240 Descending Fort Worth Center
03:13PM 33.0597 -96.8731 195° South 254 292 3,000 -60 Level Fort Worth Center
03:14PM 33.0075 -96.8883 194° South 237 273 2,900 -480 Descending Fort Worth Center
03:15PM 32.9500 -96.9000 190° South 167 192 2,000 -540 Descending Dallas / Fort Worth TRACON
03:16PM 32.9000 -96.9000 180° South 155 178 1,700 -540 Descending Dallas / Fort Worth TRACON
03:17PM 32.8833 -96.8833 140° Southeast 106 122 1,000 -720 Descending Dallas / Fort Worth TRACON
03:19PM 32.8471 -96.8518 178° South  Level Estimated
03:26PM 32.8471 -96.8518 178° South  Level Estimated